Home > Products > Valid Products > MTR

000
SAUS45 KMSO 312253
MTRP69
METAR KP69 312252Z AUTO VRB05KT 27/02 A3001 RMK AO1 SLP152 T02670017





000
SAUS45 KMSO 311354
MTRP69
METAR KP69 311352Z AUTO 00000KT 07/04 A3025 RMK AO1 SLP243 T00670044





000
SAUS45 KMSO 311154
MTRP69
METAR KP69 311152Z AUTO 00000KT 06/04 A3025 RMK AO1 SLP236 T00610044
10100 20061 53007 $





000
SAUS45 KMSO 310554
MTRP69
METAR KP69 310552Z AUTO 00000KT 10/06 A3021 RMK AO1 SLP223 T01000061
10239 20100 51019 $





000
SAUS45 KMSO 310354
MTRP69
METAR KP69 310352Z AUTO 00000KT 12/07 A3017 RMK AO1 SLP208 T01220067
$





000
SAUS45 KMSO 310154
MTRP69
METAR KP69 310152Z AUTO 00000KT 16/07 A3014 RMK AO1 SLP203 T01610067
$





000
SAUS45 KMSO 302354
MTRP69
METAR KP69 302352Z AUTO 17006KT 23/04 A3013 RMK AO1 SLP192 T02280039
10244 20189 56013 $





000
SAUS45 KMSO 302253
MTRP69
METAR KP69 302252Z AUTO VRB03KT 23/02 A3014 RMK AO1 SLP193 T02330022
$





000
SAUS45 KMSO 301753
MTRP69
METAR KP69 301752Z AUTO VRB06KT 19/03 A3020 RMK AO1 SLP217 T01890033
10189 20100 58001 $





000
SAUS45 KMSO 301254
MTRP69
METAR KP69 301252Z AUTO 00000KT 10/08 A3019 RMK AO1 SLP214 T01000083
$





000
SAUS45 KMSO 301154
MTRP69
METAR KP69 301152Z AUTO 00000KT 11/09 A3016 RMK AO1 SLP199 T01110094
10139 20111 53017 $





000
SAUS45 KMSO 301054
MTRP69
METAR KP69 301052Z AUTO 00000KT 12/09 A3014 RMK AO1 SLP192 T01170089
$





000
SAUS45 KMSO 300954
MTRP69
METAR KP69 300952Z AUTO 00000KT 12/09 A3012 RMK AO1 SLP186 T01220094
$





000
SAUS45 KMSO 300454
MTRP69
METAR KP69 300452Z AUTO 00000KT 14/11 A3004 RMK AO1 SLP163 T01440111
$





000
SAUS45 KMSO 300354
MTRP69
METAR KP69 300352Z AUTO 00000KT 15/12 A3001 RMK AO1 SLP155 T01500117
$





000
SAUS45 KMSO 292354
MTRP69
METAR KP69 292352Z AUTO 07004KT 24/06 A2991 RMK AO1 SLP119 T02440061
10278 20178 55003 $





000
SAUS45 KMSO 291054
MTRP69
METAR KP69 291052Z AUTO 33004KT 08/06 A3008 RMK AO1 SLP176 T00830056
$





000
SAUS45 KMSO 290654
MTRP69
METAR KP69 290652Z AUTO 35003KT 10/07 A3006 RMK AO1 SLP173 T01000067
$





000
SAUS45 KMSO 290453
MTRP69
METAR KP69 290452Z AUTO 35003KT 11/07 A3004 RMK AO1 SLP170 T01110072
$





000
SAUS45 KMSO 290157 COR
MTRP69
METAR KP69 290152Z AUTO 00000KT 16/07 A2999 RMK AO1 SLP152 T01560067
$





000
SAUS45 KMSO 282357 COR
MTRP69
METAR KP69 282352Z AUTO 18003KT 22/03 A3000 RMK AO1 SLP152 T02170028
10239 20172 58007 $





    US Dept of Commerce
    National Oceanic and Atmospheric Administration
    National Weather Service
    1325 East West Highway
    Silver Spring, MD 20910
    Page Author: NWS Internet Services Team
Disclaimer
Information Quality
Credits
Glossary
Privacy Policy
Freedom of Information Act (FOIA)
About Us
Career Opportunities